Terminal Aerodrome Forecast
Issued by NWS Upton, NY

Home | Current Version | Previous Version | Text Only | Print | Product List | Glossary On
Versions: 1 2 3 4 5 6 7 8 9 10 11 12 13 14 15 16 17 18 19 20 21 22 23 24 25 26 27 28 29
000
FTUS41 KOKX 041131
TAFJFK
TAF
KJFK 041131Z 0412/0518 09004KT P6SM SCT060 OVC100
     FM041400 07007KT P6SM FEW035 OVC060
      TEMPO 0415/0418 -RA
     FM041800 04008KT P6SM SCT035 OVC060
      TEMPO 0418/0420 -RA
     FM050000 04005KT P6SM BKN060
     FM050600 32005KT P6SM FEW060
     FM051300 26008KT P6SM FEW060=

USA.gov is the U.S. government's official web portal to all federal, state and local government web resources and services.